sensor_id;sensor_type;location;lat;lon;timestamp;temperature;humidity
51801;DHT22;37855;53.204;6.568;2024-01-06T00:01:45;1.50;85.10
51801;DHT22;37855;53.204;6.568;2024-01-06T00:04:11;1.50;85.10
51801;DHT22;37855;53.204;6.568;2024-01-06T00:06:37;1.50;84.90
51801;DHT22;37855;53.204;6.568;2024-01-06T00:09:12;1.50;85.10
51801;DHT22;37855;53.204;6.568;2024-01-06T00:11:39;1.60;85.00
51801;DHT22;37855;53.204;6.568;2024-01-06T00:14:04;1.60;85.10
51801;DHT22;37855;53.204;6.568;2024-01-06T00:16:38;1.60;85.00
51801;DHT22;37855;53.204;6.568;2024-01-06T00:19:07;1.60;84.80
51801;DHT22;37855;53.204;6.568;2024-01-06T00:21:45;1.60;84.80
51801;DHT22;37855;53.204;6.568;2024-01-06T00:24:11;1.60;85.00
51801;DHT22;37855;53.204;6.568;2024-01-06T00:26:37;1.50;85.00
51801;DHT22;37855;53.204;6.568;2024-01-06T00:29:16;1.60;84.90
51801;DHT22;37855;53.204;6.568;2024-01-06T00:31:42;1.60;84.50
51801;DHT22;37855;53.204;6.568;2024-01-06T00:34:08;1.60;84.30
51801;DHT22;37855;53.204;6.568;2024-01-06T00:36:36;1.60;84.30
51801;DHT22;37855;53.204;6.568;2024-01-06T00:39:08;1.60;84.40
51801;DHT22;37855;53.204;6.568;2024-01-06T00:46:59;1.60;84.40
51801;DHT22;37855;53.204;6.568;2024-01-06T00:49:28;1.60;84.40
51801;DHT22;37855;53.204;6.568;2024-01-06T00:51:54;1.60;84.40
51801;DHT22;37855;53.204;6.568;2024-01-06T00:54:20;1.60;84.60
51801;DHT22;37855;53.204;6.568;2024-01-06T00:56:50;1.60;84.80
51801;DHT22;37855;53.204;6.568;2024-01-06T00:59:16;1.70;85.00
51801;DHT22;37855;53.204;6.568;2024-01-06T01:05:21;1.50;84.80
51801;DHT22;37855;53.204;6.568;2024-01-06T01:07:47;1.40;84.70
51801;DHT22;37855;53.204;6.568;2024-01-06T01:10:14;1.40;84.60
51801;DHT22;37855;53.204;6.568;2024-01-06T01:12:45;1.40;84.40
51801;DHT22;37855;53.204;6.568;2024-01-06T01:15:11;1.30;84.70
51801;DHT22;37855;53.204;6.568;2024-01-06T01:17:36;1.40;84.90
51801;DHT22;37855;53.204;6.568;2024-01-06T01:20:06;1.40;84.60
51801;DHT22;37855;53.204;6.568;2024-01-06T01:22:34;1.40;84.60
51801;DHT22;37855;53.204;6.568;2024-01-06T01:25:06;1.40;84.30
51801;DHT22;37855;53.204;6.568;2024-01-06T01:27:36;1.40;84.10
51801;DHT22;37855;53.204;6.568;2024-01-06T01:30:11;1.40;83.90
51801;DHT22;37855;53.204;6.568;2024-01-06T01:32:55;1.30;83.50
51801;DHT22;37855;53.204;6.568;2024-01-06T01:35:21;1.20;83.90
51801;DHT22;37855;53.204;6.568;2024-01-06T01:38:01;1.30;83.80
51801;DHT22;37855;53.204;6.568;2024-01-06T01:40:28;1.20;83.90
51801;DHT22;37855;53.204;6.568;2024-01-06T01:43:36;1.20;83.90
51801;DHT22;37855;53.204;6.568;2024-01-06T01:46:06;1.30;84.20
51801;DHT22;37855;53.204;6.568;2024-01-06T01:48:32;1.30;83.90
51801;DHT22;37855;53.204;6.568;2024-01-06T01:51:14;1.40;83.80
51801;DHT22;37855;53.204;6.568;2024-01-06T01:53:52;1.40;83.10
51801;DHT22;37855;53.204;6.568;2024-01-06T01:56:24;1.30;83.40
51801;DHT22;37855;53.204;6.568;2024-01-06T01:58:51;1.30;83.70
51801;DHT22;37855;53.204;6.568;2024-01-06T02:01:23;1.30;84.00
51801;DHT22;37855;53.204;6.568;2024-01-06T02:03:49;1.30;83.70
51801;DHT22;37855;53.204;6.568;2024-01-06T02:06:24;1.30;83.60
51801;DHT22;37855;53.204;6.568;2024-01-06T02:12:42;1.20;83.60
51801;DHT22;37855;53.204;6.568;2024-01-06T02:15:52;1.10;84.00
51801;DHT22;37855;53.204;6.568;2024-01-06T02:18:19;1.10;84.30
51801;DHT22;37855;53.204;6.568;2024-01-06T02:20:57;1.20;84.30
51801;DHT22;37855;53.204;6.568;2024-01-06T02:23:28;1.30;83.70
51801;DHT22;37855;53.204;6.568;2024-01-06T02:25:56;1.30;83.00
51801;DHT22;37855;53.204;6.568;2024-01-06T02:28:39;1.10;83.10
51801;DHT22;37855;53.204;6.568;2024-01-06T02:31:06;1.00;84.10
51801;DHT22;37855;53.204;6.568;2024-01-06T02:34:00;1.00;84.40
51801;DHT22;37855;53.204;6.568;2024-01-06T02:36:52;1.00;84.40
51801;DHT22;37855;53.204;6.568;2024-01-06T02:39:19;1.00;84.00
51801;DHT22;37855;53.204;6.568;2024-01-06T02:41:58;1.00;83.80
51801;DHT22;37855;53.204;6.568;2024-01-06T02:44:23;0.90;83.80
51801;DHT22;37855;53.204;6.568;2024-01-06T02:46:52;0.90;83.90
51801;DHT22;37855;53.204;6.568;2024-01-06T02:49:19;0.90;83.80
51801;DHT22;37855;53.204;6.568;2024-01-06T02:51:58;0.90;83.90
51801;DHT22;37855;53.204;6.568;2024-01-06T02:54:23;0.90;83.80
51801;DHT22;37855;53.204;6.568;2024-01-06T02:56:50;1.00;83.60
51801;DHT22;37855;53.204;6.568;2024-01-06T02:59:22;1.00;83.60
51801;DHT22;37855;53.204;6.568;2024-01-06T03:01:48;1.00;83.40
51801;DHT22;37855;53.204;6.568;2024-01-06T03:04:15;0.90;83.60
51801;DHT22;37855;53.204;6.568;2024-01-06T03:06:44;1.00;83.80
51801;DHT22;37855;53.204;6.568;2024-01-06T03:09:11;1.00;83.40
51801;DHT22;37855;53.204;6.568;2024-01-06T03:11:42;1.00;83.80
51801;DHT22;37855;53.204;6.568;2024-01-06T03:14:08;1.00;83.60
51801;DHT22;37855;53.204;6.568;2024-01-06T03:16:34;0.90;83.70
51801;DHT22;37855;53.204;6.568;2024-01-06T03:19:06;0.90;83.70
51801;DHT22;37855;53.204;6.568;2024-01-06T03:24:04;0.80;84.40
51801;DHT22;37855;53.204;6.568;2024-01-06T03:26:30;0.80;84.10
51801;DHT22;37855;53.204;6.568;2024-01-06T03:28:56;0.80;84.10
51801;DHT22;37855;53.204;6.568;2024-01-06T03:31:21;0.80;84.20
51801;DHT22;37855;53.204;6.568;2024-01-06T03:33:53;0.90;84.40
51801;DHT22;37855;53.204;6.568;2024-01-06T03:36:24;0.90;84.10
51801;DHT22;37855;53.204;6.568;2024-01-06T03:38:53;0.80;84.20
51801;DHT22;37855;53.204;6.568;2024-01-06T03:41:19;0.90;84.50
51801;DHT22;37855;53.204;6.568;2024-01-06T03:43:44;1.00;84.20
51801;DHT22;37855;53.204;6.568;2024-01-06T03:46:10;0.90;84.00
51801;DHT22;37855;53.204;6.568;2024-01-06T03:48:36;0.90;84.20
51801;DHT22;37855;53.204;6.568;2024-01-06T03:51:06;1.00;84.10
51801;DHT22;37855;53.204;6.568;2024-01-06T03:53:41;1.00;84.00
51801;DHT22;37855;53.204;6.568;2024-01-06T03:56:13;1.00;83.50
51801;DHT22;37855;53.204;6.568;2024-01-06T03:58:54;1.00;83.60
51801;DHT22;37855;53.204;6.568;2024-01-06T04:01:20;0.90;83.70
51801;DHT22;37855;53.204;6.568;2024-01-06T04:07:11;1.00;83.50
51801;DHT22;37855;53.204;6.568;2024-01-06T04:09:43;0.90;83.60
51801;DHT22;37855;53.204;6.568;2024-01-06T04:12:09;0.90;83.60
51801;DHT22;37855;53.204;6.568;2024-01-06T04:14:35;0.80;83.80
51801;DHT22;37855;53.204;6.568;2024-01-06T04:17:13;0.80;84.10
51801;DHT22;37855;53.204;6.568;2024-01-06T04:19:39;0.80;84.10
51801;DHT22;37855;53.204;6.568;2024-01-06T04:22:05;0.80;84.20
51801;DHT22;37855;53.204;6.568;2024-01-06T04:24:31;0.90;83.70
51801;DHT22;37855;53.204;6.568;2024-01-06T04:27:03;0.80;83.80
51801;DHT22;37855;53.204;6.568;2024-01-06T04:29:34;0.80;84.10
51801;DHT22;37855;53.204;6.568;2024-01-06T04:32:07;0.80;84.30
51801;DHT22;37855;53.204;6.568;2024-01-06T04:34:33;0.70;84.60
51801;DHT22;37855;53.204;6.568;2024-01-06T04:37:36;0.80;84.40
51801;DHT22;37855;53.204;6.568;2024-01-06T04:40:02;0.80;84.40
51801;DHT22;37855;53.204;6.568;2024-01-06T04:42:29;0.80;84.60
51801;DHT22;37855;53.204;6.568;2024-01-06T04:44:55;0.80;84.50
51801;DHT22;37855;53.204;6.568;2024-01-06T04:47:22;0.70;84.30
51801;DHT22;37855;53.204;6.568;2024-01-06T04:49:58;0.80;84.30
51801;DHT22;37855;53.204;6.568;2024-01-06T04:52:24;0.80;84.40
51801;DHT22;37855;53.204;6.568;2024-01-06T04:54:50;0.70;84.30
51801;DHT22;37855;53.204;6.568;2024-01-06T04:57:17;0.70;84.40
51801;DHT22;37855;53.204;6.568;2024-01-06T04:59:42;0.70;84.40
51801;DHT22;37855;53.204;6.568;2024-01-06T05:02:08;0.80;84.40
51801;DHT22;37855;53.204;6.568;2024-01-06T05:04:35;0.80;83.70
51801;DHT22;37855;53.204;6.568;2024-01-06T05:07:01;0.90;84.00
51801;DHT22;37855;53.204;6.568;2024-01-06T05:09:27;0.80;83.90
51801;DHT22;37855;53.204;6.568;2024-01-06T05:11:52;0.90;83.70
51801;DHT22;37855;53.204;6.568;2024-01-06T05:14:18;0.90;83.70
51801;DHT22;37855;53.204;6.568;2024-01-06T05:16:53;0.90;83.90
51801;DHT22;37855;53.204;6.568;2024-01-06T05:19:28;1.00;83.80
51801;DHT22;37855;53.204;6.568;2024-01-06T05:21:54;1.00;83.90
51801;DHT22;37855;53.204;6.568;2024-01-06T05:24:35;1.10;83.40
51801;DHT22;37855;53.204;6.568;2024-01-06T05:27:07;1.00;83.30
51801;DHT22;37855;53.204;6.568;2024-01-06T05:29:36;1.10;82.80
51801;DHT22;37855;53.204;6.568;2024-01-06T05:32:16;1.00;82.80
51801;DHT22;37855;53.204;6.568;2024-01-06T05:34:43;1.00;82.90
51801;DHT22;37855;53.204;6.568;2024-01-06T05:37:11;1.00;82.80
51801;DHT22;37855;53.204;6.568;2024-01-06T05:39:41;1.00;82.80
51801;DHT22;37855;53.204;6.568;2024-01-06T05:42:20;0.90;82.60
51801;DHT22;37855;53.204;6.568;2024-01-06T05:45:00;0.90;82.70
51801;DHT22;37855;53.204;6.568;2024-01-06T05:47:26;0.90;82.80
51801;DHT22;37855;53.204;6.568;2024-01-06T05:49:55;1.00;82.50
51801;DHT22;37855;53.204;6.568;2024-01-06T05:52:21;1.00;82.50
51801;DHT22;37855;53.204;6.568;2024-01-06T05:54:54;1.10;82.40
51801;DHT22;37855;53.204;6.568;2024-01-06T05:57:32;1.10;82.10
51801;DHT22;37855;53.204;6.568;2024-01-06T05:59:59;1.10;82.30
51801;DHT22;37855;53.204;6.568;2024-01-06T06:02:34;1.00;82.10
51801;DHT22;37855;53.204;6.568;2024-01-06T06:05:00;1.00;82.30
51801;DHT22;37855;53.204;6.568;2024-01-06T06:07:33;1.00;82.50
51801;DHT22;37855;53.204;6.568;2024-01-06T06:10:24;1.10;82.20
51801;DHT22;37855;53.204;6.568;2024-01-06T06:12:58;1.00;82.10
51801;DHT22;37855;53.204;6.568;2024-01-06T06:15:25;1.00;82.30
51801;DHT22;37855;53.204;6.568;2024-01-06T06:17:52;1.00;82.20
51801;DHT22;37855;53.204;6.568;2024-01-06T06:20:17;1.00;82.40
51801;DHT22;37855;53.204;6.568;2024-01-06T06:22:43;1.00;82.50
51801;DHT22;37855;53.204;6.568;2024-01-06T06:25:09;1.10;82.40
51801;DHT22;37855;53.204;6.568;2024-01-06T06:27:35;1.10;82.30
51801;DHT22;37855;53.204;6.568;2024-01-06T06:33:05;1.10;82.30
51801;DHT22;37855;53.204;6.568;2024-01-06T06:35:49;1.10;82.20
51801;DHT22;37855;53.204;6.568;2024-01-06T06:38:21;1.10;82.50
51801;DHT22;37855;53.204;6.568;2024-01-06T06:44:08;1.10;82.00
51801;DHT22;37855;53.204;6.568;2024-01-06T06:46:39;1.10;81.90
51801;DHT22;37855;53.204;6.568;2024-01-06T06:52:07;1.20;81.70
51801;DHT22;37855;53.204;6.568;2024-01-06T06:54:32;1.20;82.10
51801;DHT22;37855;53.204;6.568;2024-01-06T06:57:07;1.20;81.70
51801;DHT22;37855;53.204;6.568;2024-01-06T06:59:33;1.20;81.90
51801;DHT22;37855;53.204;6.568;2024-01-06T07:02:00;1.20;81.80
51801;DHT22;37855;53.204;6.568;2024-01-06T07:04:34;1.10;82.40
51801;DHT22;37855;53.204;6.568;2024-01-06T07:07:04;1.20;82.20
51801;DHT22;37855;53.204;6.568;2024-01-06T07:09:32;1.20;82.30
51801;DHT22;37855;53.204;6.568;2024-01-06T07:11:59;1.20;82.40
51801;DHT22;37855;53.204;6.568;2024-01-06T07:14:28;1.20;82.30
51801;DHT22;37855;53.204;6.568;2024-01-06T07:16:53;1.20;82.30
51801;DHT22;37855;53.204;6.568;2024-01-06T07:19:21;1.20;82.70
51801;DHT22;37855;53.204;6.568;2024-01-06T07:21:53;1.20;82.50
51801;DHT22;37855;53.204;6.568;2024-01-06T07:24:31;1.20;82.70
51801;DHT22;37855;53.204;6.568;2024-01-06T07:27:06;1.20;82.70
51801;DHT22;37855;53.204;6.568;2024-01-06T07:29:32;1.20;82.80
51801;DHT22;37855;53.204;6.568;2024-01-06T07:32:04;1.30;83.10
51801;DHT22;37855;53.204;6.568;2024-01-06T07:34:29;1.30;82.60
51801;DHT22;37855;53.204;6.568;2024-01-06T07:37:02;1.30;82.90
51801;DHT22;37855;53.204;6.568;2024-01-06T07:39:27;1.30;82.60
51801;DHT22;37855;53.204;6.568;2024-01-06T07:41:54;1.30;82.90
51801;DHT22;37855;53.204;6.568;2024-01-06T07:44:20;1.30;83.00
51801;DHT22;37855;53.204;6.568;2024-01-06T07:46:53;1.30;82.60
51801;DHT22;37855;53.204;6.568;2024-01-06T07:49:18;1.30;82.90
51801;DHT22;37855;53.204;6.568;2024-01-06T07:51:54;1.40;82.60
51801;DHT22;37855;53.204;6.568;2024-01-06T07:54:20;1.30;82.60
51801;DHT22;37855;53.204;6.568;2024-01-06T07:57:56;1.40;82.70
51801;DHT22;37855;53.204;6.568;2024-01-06T08:00:16;1.40;82.10
51801;DHT22;37855;53.204;6.568;2024-01-06T08:02:54;1.40;82.20
51801;DHT22;37855;53.204;6.568;2024-01-06T08:05:20;1.40;82.50
51801;DHT22;37855;53.204;6.568;2024-01-06T08:08:14;1.40;82.20
51801;DHT22;37855;53.204;6.568;2024-01-06T08:10:42;1.40;81.60
51801;DHT22;37855;53.204;6.568;2024-01-06T08:13:44;1.40;82.00
51801;DHT22;37855;53.204;6.568;2024-01-06T08:16:36;1.30;82.10
51801;DHT22;37855;53.204;6.568;2024-01-06T08:26:32;1.40;82.00
51801;DHT22;37855;53.204;6.568;2024-01-06T08:59:29;1.40;80.70
51801;DHT22;37855;53.204;6.568;2024-01-06T09:02:17;1.40;81.00
51801;DHT22;37855;53.204;6.568;2024-01-06T09:04:57;1.40;81.10
51801;DHT22;37855;53.204;6.568;2024-01-06T09:07:26;1.40;81.10
51801;DHT22;37855;53.204;6.568;2024-01-06T09:09:56;1.40;81.30
51801;DHT22;37855;53.204;6.568;2024-01-06T09:12:35;1.40;81.20
51801;DHT22;37855;53.204;6.568;2024-01-06T09:15:40;1.50;80.80
51801;DHT22;37855;53.204;6.568;2024-01-06T09:19:12;1.40;80.80
51801;DHT22;37855;53.204;6.568;2024-01-06T09:21:37;1.40;81.20
51801;DHT22;37855;53.204;6.568;2024-01-06T09:24:04;1.40;81.20
51801;DHT22;37855;53.204;6.568;2024-01-06T09:26:35;1.50;81.10
51801;DHT22;37855;53.204;6.568;2024-01-06T09:29:17;1.50;80.80
51801;DHT22;37855;53.204;6.568;2024-01-06T09:31:43;1.50;80.70
51801;DHT22;37855;53.204;6.568;2024-01-06T09:34:30;1.60;80.70
51801;DHT22;37855;53.204;6.568;2024-01-06T09:37:23;1.60;80.10
51801;DHT22;37855;53.204;6.568;2024-01-06T09:40:08;1.60;80.20
51801;DHT22;37855;53.204;6.568;2024-01-06T09:45:38;1.50;80.30
51801;DHT22;37855;53.204;6.568;2024-01-06T09:48:15;1.50;80.50
51801;DHT22;37855;53.204;6.568;2024-01-06T10:00:48;1.50;80.00
51801;DHT22;37855;53.204;6.568;2024-01-06T10:12:58;1.50;80.00
51801;DHT22;37855;53.204;6.568;2024-01-06T10:18:32;1.40;80.50
51801;DHT22;37855;53.204;6.568;2024-01-06T10:25:18;1.50;80.50
51801;DHT22;37855;53.204;6.568;2024-01-06T11:33:09;1.50;80.90
51801;DHT22;37855;53.204;6.568;2024-01-06T11:36:01;1.40;80.50
51801;DHT22;37855;53.204;6.568;2024-01-06T11:38:40;1.50;80.30
51801;DHT22;37855;53.204;6.568;2024-01-06T12:04:15;1.40;79.10
51801;DHT22;37855;53.204;6.568;2024-01-06T12:31:32;1.30;78.60
51801;DHT22;37855;53.204;6.568;2024-01-06T13:45:53;1.20;78.20
51801;DHT22;37855;53.204;6.568;2024-01-06T13:48:24;1.10;78.60
51801;DHT22;37855;53.204;6.568;2024-01-06T13:51:09;1.10;79.00
51801;DHT22;37855;53.204;6.568;2024-01-06T13:54:00;1.10;79.20
51801;DHT22;37855;53.204;6.568;2024-01-06T13:56:59;1.20;78.80
51801;DHT22;37855;53.204;6.568;2024-01-06T13:59:33;1.20;79.20
51801;DHT22;37855;53.204;6.568;2024-01-06T14:02:06;1.20;78.80
51801;DHT22;37855;53.204;6.568;2024-01-06T14:04:33;1.10;79.00
51801;DHT22;37855;53.204;6.568;2024-01-06T14:06:58;1.20;78.70
51801;DHT22;37855;53.204;6.568;2024-01-06T14:09:27;1.20;78.80
51801;DHT22;37855;53.204;6.568;2024-01-06T14:11:56;1.20;78.40
51801;DHT22;37855;53.204;6.568;2024-01-06T14:14:41;1.20;78.50
51801;DHT22;37855;53.204;6.568;2024-01-06T14:25:06;1.10;77.60
51801;DHT22;37855;53.204;6.568;2024-01-06T14:27:33;1.00;78.20
51801;DHT22;37855;53.204;6.568;2024-01-06T14:33:36;0.90;79.10
51801;DHT22;37855;53.204;6.568;2024-01-06T14:36:04;1.00;79.40
51801;DHT22;37855;53.204;6.568;2024-01-06T14:38:34;1.00;78.80
51801;DHT22;37855;53.204;6.568;2024-01-06T14:40:59;1.00;79.20
51801;DHT22;37855;53.204;6.568;2024-01-06T14:43:28;1.00;79.00
51801;DHT22;37855;53.204;6.568;2024-01-06T14:46:18;1.00;79.20
51801;DHT22;37855;53.204;6.568;2024-01-06T14:48:44;1.00;79.20
51801;DHT22;37855;53.204;6.568;2024-01-06T14:51:10;1.10;78.60
51801;DHT22;37855;53.204;6.568;2024-01-06T14:53:47;1.10;78.40
51801;DHT22;37855;53.204;6.568;2024-01-06T14:56:13;1.10;78.10
51801;DHT22;37855;53.204;6.568;2024-01-06T14:58:39;1.00;78.50
51801;DHT22;37855;53.204;6.568;2024-01-06T15:04:39;1.00;78.80
51801;DHT22;37855;53.204;6.568;2024-01-06T15:07:06;1.00;78.90
51801;DHT22;37855;53.204;6.568;2024-01-06T15:15:00;1.00;78.90
51801;DHT22;37855;53.204;6.568;2024-01-06T15:17:27;1.00;79.10
51801;DHT22;37855;53.204;6.568;2024-01-06T15:29:08;0.90;79.80
51801;DHT22;37855;53.204;6.568;2024-01-06T15:31:50;0.90;79.40
51801;DHT22;37855;53.204;6.568;2024-01-06T15:34:21;0.90;79.30
51801;DHT22;37855;53.204;6.568;2024-01-06T15:36:51;0.80;79.80
51801;DHT22;37855;53.204;6.568;2024-01-06T15:47:30;0.70;80.80
51801;DHT22;37855;53.204;6.568;2024-01-06T15:50:05;0.60;80.90
51801;DHT22;37855;53.204;6.568;2024-01-06T15:53:01;0.60;81.30
51801;DHT22;37855;53.204;6.568;2024-01-06T15:55:28;0.50;81.80
51801;DHT22;37855;53.204;6.568;2024-01-06T15:58:02;0.60;81.40
51801;DHT22;37855;53.204;6.568;2024-01-06T16:00:27;0.60;81.10
51801;DHT22;37855;53.204;6.568;2024-01-06T16:02:53;0.50;81.00
51801;DHT22;37855;53.204;6.568;2024-01-06T16:05:19;0.50;81.00
51801;DHT22;37855;53.204;6.568;2024-01-06T16:07:48;0.40;81.20
51801;DHT22;37855;53.204;6.568;2024-01-06T16:10:14;0.30;81.60
51801;DHT22;37855;53.204;6.568;2024-01-06T16:16:28;0.30;81.50
51801;DHT22;37855;53.204;6.568;2024-01-06T16:19:09;0.40;81.40
51801;DHT22;37855;53.204;6.568;2024-01-06T16:21:49;0.30;82.10
51801;DHT22;37855;53.204;6.568;2024-01-06T16:24:44;0.40;82.00
51801;DHT22;37855;53.204;6.568;2024-01-06T16:27:10;0.40;82.10
51801;DHT22;37855;53.204;6.568;2024-01-06T16:32:32;0.40;82.30
51801;DHT22;37855;53.204;6.568;2024-01-06T16:35:00;0.50;82.30
51801;DHT22;37855;53.204;6.568;2024-01-06T16:37:30;0.50;82.20
51801;DHT22;37855;53.204;6.568;2024-01-06T16:39:55;0.40;82.10
51801;DHT22;37855;53.204;6.568;2024-01-06T16:42:21;0.40;82.40
51801;DHT22;37855;53.204;6.568;2024-01-06T16:45:05;0.30;82.60
51801;DHT22;37855;53.204;6.568;2024-01-06T16:47:31;0.30;82.90
51801;DHT22;37855;53.204;6.568;2024-01-06T16:50:03;0.40;83.10
51801;DHT22;37855;53.204;6.568;2024-01-06T16:52:29;0.30;83.10
51801;DHT22;37855;53.204;6.568;2024-01-06T16:54:55;0.30;83.40
51801;DHT22;37855;53.204;6.568;2024-01-06T16:57:23;0.30;83.20
51801;DHT22;37855;53.204;6.568;2024-01-06T16:59:55;0.30;83.30
51801;DHT22;37855;53.204;6.568;2024-01-06T17:02:36;0.30;83.30
51801;DHT22;37855;53.204;6.568;2024-01-06T17:05:03;0.20;83.40
51801;DHT22;37855;53.204;6.568;2024-01-06T17:07:43;0.20;83.50
51801;DHT22;37855;53.204;6.568;2024-01-06T17:10:30;0.20;83.60
51801;DHT22;37855;53.204;6.568;2024-01-06T17:13:11;0.20;83.90
51801;DHT22;37855;53.204;6.568;2024-01-06T17:19:20;0.30;83.80
51801;DHT22;37855;53.204;6.568;2024-01-06T17:21:46;0.30;84.00
51801;DHT22;37855;53.204;6.568;2024-01-06T17:24:12;0.40;83.80
51801;DHT22;37855;53.204;6.568;2024-01-06T17:26:47;0.40;83.70
51801;DHT22;37855;53.204;6.568;2024-01-06T17:29:28;0.30;83.70
51801;DHT22;37855;53.204;6.568;2024-01-06T17:32:06;0.30;83.70
51801;DHT22;37855;53.204;6.568;2024-01-06T17:34:57;0.30;83.80
51801;DHT22;37855;53.204;6.568;2024-01-06T17:40:33;0.20;83.90
51801;DHT22;37855;53.204;6.568;2024-01-06T17:43:01;0.10;84.20
51801;DHT22;37855;53.204;6.568;2024-01-06T17:45:32;0.20;84.00
51801;DHT22;37855;53.204;6.568;2024-01-06T17:47:58;0.10;84.20
51801;DHT22;37855;53.204;6.568;2024-01-06T17:50:30;0.10;84.40
51801;DHT22;37855;53.204;6.568;2024-01-06T17:53:21;0.20;84.30
51801;DHT22;37855;53.204;6.568;2024-01-06T17:55:56;0.20;84.20
51801;DHT22;37855;53.204;6.568;2024-01-06T17:58:28;0.10;84.00
51801;DHT22;37855;53.204;6.568;2024-01-06T18:00:53;0.00;83.80
51801;DHT22;37855;53.204;6.568;2024-01-06T18:03:25;0.00;84.30
51801;DHT22;37855;53.204;6.568;2024-01-06T18:05:54;0.10;84.00
51801;DHT22;37855;53.204;6.568;2024-01-06T18:08:32;0.00;83.50
51801;DHT22;37855;53.204;6.568;2024-01-06T18:10:59;0.00;83.80
51801;DHT22;37855;53.204;6.568;2024-01-06T18:13:25;-0.10;83.90
51801;DHT22;37855;53.204;6.568;2024-01-06T18:15:50;-0.10;84.00
51801;DHT22;37855;53.204;6.568;2024-01-06T18:18:16;-0.10;83.80
51801;DHT22;37855;53.204;6.568;2024-01-06T18:20:41;-0.10;83.70
51801;DHT22;37855;53.204;6.568;2024-01-06T18:23:27;-0.20;84.00
51801;DHT22;37855;53.204;6.568;2024-01-06T18:25:53;-0.20;84.30
51801;DHT22;37855;53.204;6.568;2024-01-06T18:28:19;-0.10;84.60
51801;DHT22;37855;53.204;6.568;2024-01-06T18:30:49;-0.10;84.40
51801;DHT22;37855;53.204;6.568;2024-01-06T18:33:15;-0.10;84.30
51801;DHT22;37855;53.204;6.568;2024-01-06T18:35:41;-0.10;84.30
51801;DHT22;37855;53.204;6.568;2024-01-06T18:38:07;-0.10;84.30
51801;DHT22;37855;53.204;6.568;2024-01-06T18:40:32;-0.10;84.40
51801;DHT22;37855;53.204;6.568;2024-01-06T18:42:58;-0.10;84.40
51801;DHT22;37855;53.204;6.568;2024-01-06T18:45:24;-0.10;84.20
51801;DHT22;37855;53.204;6.568;2024-01-06T18:47:51;-0.10;84.30
51801;DHT22;37855;53.204;6.568;2024-01-06T18:50:17;-0.10;84.50
51801;DHT22;37855;53.204;6.568;2024-01-06T18:52:45;-0.10;84.40
51801;DHT22;37855;53.204;6.568;2024-01-06T18:55:15;0.00;84.30
51801;DHT22;37855;53.204;6.568;2024-01-06T18:57:41;-0.10;84.20
51801;DHT22;37855;53.204;6.568;2024-01-06T19:00:16;-0.10;84.50
51801;DHT22;37855;53.204;6.568;2024-01-06T19:02:45;-0.10;84.60
51801;DHT22;37855;53.204;6.568;2024-01-06T19:05:12;-0.10;84.80
51801;DHT22;37855;53.204;6.568;2024-01-06T19:07:38;-0.10;85.60
51801;DHT22;37855;53.204;6.568;2024-01-06T19:10:04;-0.10;85.70
51801;DHT22;37855;53.204;6.568;2024-01-06T19:12:30;0.00;85.70
51801;DHT22;37855;53.204;6.568;2024-01-06T19:14:55;-0.10;85.20
51801;DHT22;37855;53.204;6.568;2024-01-06T19:17:21;0.00;84.40
51801;DHT22;37855;53.204;6.568;2024-01-06T19:19:52;0.10;83.90
51801;DHT22;37855;53.204;6.568;2024-01-06T19:22:18;0.00;84.00
51801;DHT22;37855;53.204;6.568;2024-01-06T19:24:44;-0.10;84.10
51801;DHT22;37855;53.204;6.568;2024-01-06T19:27:10;-0.10;84.30
51801;DHT22;37855;53.204;6.568;2024-01-06T19:29:36;-0.20;84.70
51801;DHT22;37855;53.204;6.568;2024-01-06T19:32:07;-0.10;85.00
51801;DHT22;37855;53.204;6.568;2024-01-06T19:34:33;-0.10;84.90
51801;DHT22;37855;53.204;6.568;2024-01-06T19:37:00;-0.10;85.00
51801;DHT22;37855;53.204;6.568;2024-01-06T19:39:51;-0.20;85.30
51801;DHT22;37855;53.204;6.568;2024-01-06T19:42:17;-0.20;85.20
51801;DHT22;37855;53.204;6.568;2024-01-06T19:44:42;-0.10;85.00
51801;DHT22;37855;53.204;6.568;2024-01-06T19:47:09;-0.10;84.90
51801;DHT22;37855;53.204;6.568;2024-01-06T19:49:35;-0.10;84.60
51801;DHT22;37855;53.204;6.568;2024-01-06T19:52:03;-0.20;84.60
51801;DHT22;37855;53.204;6.568;2024-01-06T19:54:29;-0.20;84.90
51801;DHT22;37855;53.204;6.568;2024-01-06T19:56:57;-0.20;84.60
51801;DHT22;37855;53.204;6.568;2024-01-06T19:59:23;-0.30;84.90
51801;DHT22;37855;53.204;6.568;2024-01-06T20:05:36;-0.30;85.20
51801;DHT22;37855;53.204;6.568;2024-01-06T20:08:01;-0.40;85.30
51801;DHT22;37855;53.204;6.568;2024-01-06T20:10:27;-0.30;85.20
51801;DHT22;37855;53.204;6.568;2024-01-06T20:12:53;-0.40;85.20
51801;DHT22;37855;53.204;6.568;2024-01-06T20:15:18;-0.30;85.00
51801;DHT22;37855;53.204;6.568;2024-01-06T20:17:44;-0.30;84.80
51801;DHT22;37855;53.204;6.568;2024-01-06T20:20:10;-0.30;85.00
51801;DHT22;37855;53.204;6.568;2024-01-06T20:22:37;-0.40;85.20
51801;DHT22;37855;53.204;6.568;2024-01-06T20:25:03;-0.40;85.20
51801;DHT22;37855;53.204;6.568;2024-01-06T20:27:29;-0.40;84.90
51801;DHT22;37855;53.204;6.568;2024-01-06T20:29:55;-0.40;85.00
51801;DHT22;37855;53.204;6.568;2024-01-06T20:32:21;-0.30;85.10
51801;DHT22;37855;53.204;6.568;2024-01-06T20:34:46;-0.40;84.70
51801;DHT22;37855;53.204;6.568;2024-01-06T20:37:12;-0.40;85.20
51801;DHT22;37855;53.204;6.568;2024-01-06T20:39:38;-0.40;85.20
51801;DHT22;37855;53.204;6.568;2024-01-06T20:42:04;-0.30;84.90
51801;DHT22;37855;53.204;6.568;2024-01-06T20:44:34;-0.30;85.00
51801;DHT22;37855;53.204;6.568;2024-01-06T20:47:00;-0.40;84.90
51801;DHT22;37855;53.204;6.568;2024-01-06T20:49:26;-0.30;85.10
51801;DHT22;37855;53.204;6.568;2024-01-06T20:51:52;-0.40;85.00
51801;DHT22;37855;53.204;6.568;2024-01-06T20:54:18;-0.30;85.20
51801;DHT22;37855;53.204;6.568;2024-01-06T20:56:43;-0.30;84.90
51801;DHT22;37855;53.204;6.568;2024-01-06T20:59:09;-0.30;84.80
51801;DHT22;37855;53.204;6.568;2024-01-06T21:01:35;-0.30;84.50
51801;DHT22;37855;53.204;6.568;2024-01-06T21:04:01;-0.30;84.80
51801;DHT22;37855;53.204;6.568;2024-01-06T21:06:27;-0.40;84.90
51801;DHT22;37855;53.204;6.568;2024-01-06T21:08:52;-0.50;85.20
51801;DHT22;37855;53.204;6.568;2024-01-06T21:11:19;-0.50;85.50
51801;DHT22;37855;53.204;6.568;2024-01-06T21:13:46;-0.50;85.20
51801;DHT22;37855;53.204;6.568;2024-01-06T21:16:12;-0.50;85.30
51801;DHT22;37855;53.204;6.568;2024-01-06T21:18:38;-0.50;85.20
51801;DHT22;37855;53.204;6.568;2024-01-06T21:21:04;-0.50;85.10
51801;DHT22;37855;53.204;6.568;2024-01-06T21:23:33;-0.60;85.20
51801;DHT22;37855;53.204;6.568;2024-01-06T21:25:59;-0.60;85.30
51801;DHT22;37855;53.204;6.568;2024-01-06T21:36:26;-0.60;85.50
51801;DHT22;37855;53.204;6.568;2024-01-06T21:38:52;-0.50;85.30
51801;DHT22;37855;53.204;6.568;2024-01-06T21:41:17;-0.50;85.30
51801;DHT22;37855;53.204;6.568;2024-01-06T21:43:43;-0.40;85.40
51801;DHT22;37855;53.204;6.568;2024-01-06T21:46:09;-0.50;84.90
51801;DHT22;37855;53.204;6.568;2024-01-06T21:48:34;-0.40;85.00
51801;DHT22;37855;53.204;6.568;2024-01-06T21:51:01;-0.40;84.90